Terminal Aerodrome Forecast
Issued by NWS

Home | Current Version | Previous Version | Text Only | Print | Product List | Glossary On
Versions: 1 2 3 4 5 6 7 8 9 10 11 12 13 14 15 16 17 18 19 20
000
FTUS42 KJAX 211100
TAFVQQ
TAF
KVQQ 211121Z 2112/2212 VRB04KT P6SM SCT250
      TEMPO 2112/2113 4SM BR
     FM212000 13006KT P6SM SCT050
     FM220200 18004KT P6SM SCT250=

USA.gov is the U.S. government's official web portal to all federal, state and local government web resources and services.